Time;durP1;ratioP1;P1;durP2;ratioP2;P2;SDS_P1;SDS_P2;PMS_P1;PMS_P2;Temp;Humidity;BMP_temperature;BMP_pressure;BME280_temperature;BME280_humidity;BME280_pressure;Samples;Min_cycle;Max_cycle;Signal;HPM_P1;HPM_P2
2023/06/02 00:01:21;;;;;;;10.73;6.97;;;;;;;16.30;70.66;99413.75;5054485;28;20468;-77
2023/06/02 00:03:47;;;;;;;11.95;7.32;;;;;;;16.32;70.79;99432.06;5054459;28;20037;-77
2023/06/02 00:06:18;;;;;;;9.82;6.40;;;;;;;16.32;70.77;99432.06;5054143;28;20037;-77
2023/06/02 00:08:43;;;;;;;14.27;8.18;;;;;;;16.16;71.13;99409.53;5054358;28;20040;-77
2023/06/02 00:11:11;;;;;;;11.30;7.25;;;;;;;16.12;70.98;99408.06;5054065;28;20389;-77
2023/06/02 00:13:37;;;;;;;12.30;7.22;;;;;;;16.25;71.24;99441.34;5054269;28;20047;-77
2023/06/02 00:16:03;;;;;;;9.82;6.78;;;;;;;16.00;71.42;99424.72;5054017;28;20098;-77
2023/06/02 00:18:32;;;;;;;12.43;6.72;;;;;;;16.03;71.34;99407.91;5054202;28;20025;-77
2023/06/02 00:20:59;;;;;;;14.55;7.38;;;;;;;16.14;71.36;99424.56;5053838;28;20028;-77
2023/06/02 00:23:25;;;;;;;11.82;7.28;;;;;;;15.91;71.82;99420.16;5054462;28;20037;-77
2023/06/02 00:25:50;;;;;;;12.50;7.40;;;;;;;15.73;71.94;99392.59;5054152;28;20373;-77
2023/06/02 00:28:16;;;;;;;12.60;7.20;;;;;;;15.71;72.06;99403.19;5053850;28;20469;-77
2023/06/02 00:30:41;;;;;;;10.85;6.70;;;;;;;15.84;72.12;99427.63;5053920;28;20103;-77
2023/06/02 00:33:06;;;;;;;13.70;7.60;;;;;;;15.71;72.17;99416.31;5053567;28;20060;-77
2023/06/02 00:35:32;;;;;;;10.57;6.70;;;;;;;15.83;72.25;99446.94;5053864;28;20112;-77
2023/06/02 00:38:02;;;;;;;16.05;7.22;;;;;;;15.83;72.26;99433.81;5053758;28;20025;-77
2023/06/02 00:40:28;;;;;;;12.20;7.53;;;;;;;15.69;72.40;99424.31;5053774;28;20028;-77
2023/06/02 00:42:53;;;;;;;8.82;6.70;;;;;;;15.66;72.73;99426.31;5053958;28;20025;-77
2023/06/02 00:45:18;;;;;;;11.07;7.15;;;;;;;15.63;72.68;99414.22;5053712;28;20025;-77
2023/06/02 00:47:44;;;;;;;11.35;6.60;;;;;;;15.82;72.67;99441.81;5053776;28;20025;-77
2023/06/02 00:50:10;;;;;;;7.93;6.88;;;;;;;15.62;72.80;99424.81;5053759;28;20043;-77
2023/06/02 00:52:37;;;;;;;11.68;6.85;;;;;;;15.57;72.87;99422.53;5053663;28;20229;-77
2023/06/02 00:55:03;;;;;;;15.02;7.55;;;;;;;15.66;73.01;99439.44;5053386;28;20033;-77
2023/06/02 00:57:28;;;;;;;10.95;8.00;;;;;;;15.61;73.26;99439.75;5053297;28;20392;-77
2023/06/02 00:59:57;;;;;;;10.25;7.65;;;;;;;15.46;73.32;99425.06;5053427;28;20032;-77
2023/06/02 01:02:22;;;;;;;11.55;7.28;;;;;;;15.60;73.39;99450.34;5053330;28;20111;-77
2023/06/02 01:04:50;;;;;;;15.02;7.70;;;;;;;15.43;73.52;99418.25;5053219;28;20064;-77
2023/06/02 01:07:23;;;;;;;11.25;7.03;;;;;;;15.30;73.71;99412.19;5053158;28;20033;-77
2023/06/02 01:09:52;;;;;;;12.18;6.63;;;;;;;15.39;73.58;99429.91;5053215;28;20033;-77
2023/06/02 01:12:19;;;;;;;10.95;7.05;;;;;;;15.37;73.90;99416.03;5053195;28;20136;-77
2023/06/02 01:14:45;;;;;;;12.07;6.68;;;;;;;15.42;74.07;99437.59;5053059;28;20071;-77
2023/06/02 01:17:10;;;;;;;10.48;6.70;;;;;;;15.35;74.12;99435.50;5052713;28;20377;-77
2023/06/02 01:19:38;;;;;;;9.63;7.13;;;;;;;15.22;74.07;99420.59;5053192;28;20033;-77
2023/06/02 01:22:06;;;;;;;9.40;6.85;;;;;;;15.33;74.19;99443.44;5052864;28;20029;-77
2023/06/02 01:24:40;;;;;;;10.55;6.95;;;;;;;15.20;74.17;99430.34;5052831;28;20536;-77
2023/06/02 01:27:07;;;;;;;11.20;7.25;;;;;;;14.95;74.33;99397.09;5052588;28;20496;-77
2023/06/02 01:29:35;;;;;;;8.57;6.43;;;;;;;15.03;74.73;99425.41;5052888;28;20040;-77
2023/06/02 01:32:10;;;;;;;12.93;7.43;;;;;;;15.00;74.95;99440.53;5052483;28;20477;-77
2023/06/02 01:34:43;;;;;;;11.30;7.35;;;;;;;14.96;75.08;99435.50;5052739;28;20530;-77
2023/06/02 01:37:11;;;;;;;9.82;7.07;;;;;;;14.95;75.69;99440.84;5052563;28;20025;-77
2023/06/02 01:39:39;;;;;;;10.15;7.10;;;;;;;14.87;75.82;99440.50;5052723;28;20025;-77
2023/06/02 01:42:06;;;;;;;12.30;7.63;;;;;;;14.74;76.04;99424.78;5052297;28;20024;-77
2023/06/02 01:44:32;;;;;;;13.50;8.18;;;;;;;14.83;75.99;99449.53;5052476;28;20114;-77
2023/06/02 01:46:58;;;;;;;13.07;7.80;;;;;;;14.77;76.28;99453.41;5052526;28;20029;-77
2023/06/02 01:49:23;;;;;;;16.83;8.35;;;;;;;14.64;76.54;99435.03;5052520;28;20055;-77
2023/06/02 01:51:48;;;;;;;11.93;7.80;;;;;;;14.69;76.63;99447.84;5052512;28;20382;-77
2023/06/02 01:54:15;;;;;;;9.40;7.15;;;;;;;14.52;76.84;99428.00;5052180;28;20373;-77
2023/06/02 01:56:40;;;;;;;12.32;7.28;;;;;;;14.53;76.84;99431.44;5052223;28;20436;-77
2023/06/02 01:59:07;;;;;;;15.02;7.75;;;;;;;14.67;76.96;99462.84;5051970;28;20063;-77
2023/06/02 02:01:33;;;;;;;11.23;7.40;;;;;;;14.57;77.40;99453.91;5052120;28;20533;-77
2023/06/02 02:03:59;;;;;;;13.05;7.68;;;;;;;14.62;77.32;99460.53;5051764;28;20033;-77
2023/06/02 02:06:29;;;;;;;12.75;7.38;;;;;;;14.58;77.19;99464.28;5052321;28;20051;-77
2023/06/02 02:08:56;;;;;;;12.30;6.97;;;;;;;14.64;77.38;99469.13;5049961;28;20073;-77
2023/06/02 02:11:22;;;;;;;12.07;7.72;;;;;;;14.58;77.35;99459.06;5051809;28;20429;-77
2023/06/02 02:13:47;;;;;;;14.70;7.78;;;;;;;14.62;77.04;99457.91;5051949;28;20112;-76
2023/06/02 02:16:13;;;;;;;13.95;7.70;;;;;;;14.65;77.27;99462.94;5051865;28;20025;-77
2023/06/02 02:18:39;;;;;;;12.93;7.53;;;;;;;14.39;77.38;99424.47;5052018;28;20037;-77
2023/06/02 02:21:04;;;;;;;9.73;7.47;;;;;;;14.60;77.26;99443.22;5051752;28;20013;-77
2023/06/02 02:23:30;;;;;;;12.23;7.45;;;;;;;14.60;77.34;99451.91;5052255;28;20446;-77
2023/06/02 02:25:55;;;;;;;12.68;8.23;;;;;;;14.39;77.13;99411.38;5051843;28;20028;-77
2023/06/02 02:28:20;;;;;;;11.20;7.32;;;;;;;14.49;77.26;99433.44;5051911;28;20033;-77
2023/06/02 02:30:46;;;;;;;11.88;7.68;;;;;;;14.41;77.68;99427.81;5051807;28;20020;-77
2023/06/02 02:33:12;;;;;;;11.50;7.70;;;;;;;14.44;77.54;99438.94;5051433;28;20049;-77
2023/06/02 02:35:37;;;;;;;13.50;8.68;;;;;;;14.54;77.79;99465.44;5051874;28;20025;-76
2023/06/02 02:38:03;;;;;;;12.20;7.97;;;;;;;14.50;77.90;99458.72;5051656;28;20548;-77
2023/06/02 02:40:28;;;;;;;18.50;8.60;;;;;;;14.37;78.00;99447.34;5051647;28;20028;-76
2023/06/02 02:42:54;;;;;;;16.17;8.57;;;;;;;14.41;77.83;99459.25;5051626;28;20028;-77
2023/06/02 02:45:20;;;;;;;11.93;8.57;;;;;;;14.30;78.06;99462.59;5051637;28;20052;-77
2023/06/02 02:47:45;;;;;;;11.38;8.40;;;;;;;14.30;78.41;99453.91;5051836;28;20519;-77
2023/06/02 02:50:10;;;;;;;11.63;7.95;;;;;;;14.09;78.68;99448.28;5051568;28;20024;-77
2023/06/02 02:52:35;;;;;;;12.32;8.20;;;;;;;14.22;78.64;99467.50;5051697;28;20025;-77
2023/06/02 02:55:01;;;;;;;13.35;8.98;;;;;;;14.20;78.87;99469.38;5051470;28;20048;-77
2023/06/02 02:57:28;;;;;;;17.90;9.63;;;;;;;14.03;79.18;99452.13;5051581;28;20090;-77
2023/06/02 02:59:55;;;;;;;12.95;8.80;;;;;;;14.14;79.22;99475.84;5051709;28;20021;-76
2023/06/02 03:02:21;;;;;;;12.88;9.57;;;;;;;14.16;79.37;99483.63;5032672;28;20397;-77
2023/06/02 03:04:46;;;;;;;18.40;9.82;;;;;;;14.22;79.55;99481.44;5051783;28;20025;-76
2023/06/02 03:07:11;;;;;;;14.48;9.40;;;;;;;14.23;79.63;99480.47;5051286;28;20033;-77
2023/06/02 03:09:37;;;;;;;17.50;10.38;;;;;;;14.27;79.32;99480.28;5051229;28;20566;-76
2023/06/02 03:12:02;;;;;;;18.30;9.38;;;;;;;14.25;79.40;99471.72;5051434;28;20032;-76
2023/06/02 03:14:28;;;;;;;19.10;10.00;;;;;;;14.32;79.36;99486.06;5051352;28;20071;-77
2023/06/02 03:16:54;;;;;;;17.75;9.98;;;;;;;14.34;79.28;99487.66;5054695;28;20116;-77
2023/06/02 03:19:21;;;;;;;16.70;10.00;;;;;;;14.25;79.23;99471.72;5055244;28;20029;-76
2023/06/02 03:21:46;;;;;;;16.90;9.50;;;;;;;14.26;79.06;99468.13;5055354;28;20024;-76
2023/06/02 03:24:16;;;;;;;14.43;10.05;;;;;;;14.37;78.92;99477.00;5055197;28;20163;-77
2023/06/02 03:26:42;;;;;;;15.93;9.75;;;;;;;14.19;79.11;99455.41;5055348;28;20056;-77
2023/06/02 03:29:08;;;;;;;15.48;9.73;;;;;;;14.33;79.07;99459.78;5055035;28;20056;-77
2023/06/02 03:31:34;;;;;;;14.95;10.57;;;;;;;14.46;78.92;99480.78;5055221;28;20033;-76
2023/06/02 03:34:00;;;;;;;19.05;10.55;;;;;;;14.42;78.95;99466.22;5054917;28;20075;-76
2023/06/02 03:36:25;;;;;;;12.82;8.45;;;;;;;14.58;78.78;99493.13;5054841;28;20536;-77
2023/06/02 03:38:51;;;;;;;11.82;8.30;;;;;;;14.44;78.90;99477.41;5055170;28;20043;-77
2023/06/02 03:41:16;;;;;;;14.60;9.77;;;;;;;14.67;78.88;99499.53;5055040;28;20025;-77
2023/06/02 03:43:41;;;;;;;13.65;8.73;;;;;;;14.54;78.77;99482.91;5055334;28;20041;-77
2023/06/02 03:46:07;;;;;;;18.33;10.15;;;;;;;14.71;78.67;99501.84;5054783;28;20060;-77
2023/06/02 03:48:33;;;;;;;15.45;8.82;;;;;;;14.66;78.47;99492.59;5054866;28;20373;-76
2023/06/02 03:50:58;;;;;;;19.67;9.10;;;;;;;14.67;78.26;99495.13;5054751;28;20060;-76
2023/06/02 03:53:23;;;;;;;17.40;9.18;;;;;;;14.74;78.60;99506.03;5054338;28;20460;-76
2023/06/02 03:55:49;;;;;;;16.30;8.90;;;;;;;14.72;78.69;99508.78;5054510;28;20100;-77
2023/06/02 03:58:14;;;;;;;12.45;8.88;;;;;;;14.51;79.01;99486.59;5054528;28;20115;-77
2023/06/02 04:00:41;;;;;;;14.35;8.80;;;;;;;14.58;78.95;99492.25;5054750;28;20100;-77
2023/06/02 04:03:08;;;;;;;12.50;8.50;;;;;;;14.66;78.98;99503.94;5054467;28;20416;-77
2023/06/02 04:05:34;;;;;;;14.75;8.98;;;;;;;14.62;78.89;99494.59;5054454;28;20082;-76
2023/06/02 04:07:59;;;;;;;12.98;8.00;;;;;;;14.74;78.74;99485.06;5054322;28;20024;-76
2023/06/02 04:10:25;;;;;;;14.60;8.77;;;;;;;14.94;78.21;99499.47;5054045;28;20029;-77
2023/06/02 04:12:50;;;;;;;20.83;8.95;;;;;;;15.14;77.53;99503.38;5054383;28;20033;-77
2023/06/02 04:15:16;;;;;;;11.73;7.95;;;;;;;15.31;76.87;99512.75;5054130;28;20021;-76
2023/06/02 04:17:41;;;;;;;12.10;6.88;;;;;;;15.59;76.29;99495.91;5054345;28;20032;-77
2023/06/02 04:20:07;;;;;;;12.55;7.35;;;;;;;16.00;75.35;99492.19;5054164;28;20108;-76
2023/06/02 04:22:34;;;;;;;10.05;7.72;;;;;;;16.37;74.50;99514.88;5054121;28;20496;-77
2023/06/02 04:24:59;;;;;;;13.15;6.97;;;;;;;16.84;73.60;99513.19;5054315;28;20060;-77
2023/06/02 04:27:25;;;;;;;14.82;7.40;;;;;;;17.06;72.25;99493.16;5053559;28;20060;-77
2023/06/02 04:29:50;;;;;;;16.27;7.32;;;;;;;17.43;71.27;99499.06;5053765;28;20112;-77
2023/06/02 04:32:15;;;;;;;10.05;6.57;;;;;;;17.84;70.39;99516.94;5052446;28;20144;-77
2023/06/02 04:34:41;;;;;;;11.55;6.40;;;;;;;18.26;69.01;99501.31;5053534;28;20045;-78
2023/06/02 04:37:07;;;;;;;11.35;6.18;;;;;;;18.91;66.55;99510.91;5053729;28;20503;-78
2023/06/02 04:39:35;;;;;;;11.38;6.88;;;;;;;19.58;64.92;99511.44;5054008;28;20028;-78
2023/06/02 04:42:00;;;;;;;14.40;6.25;;;;;;;19.89;63.27;99502.56;5053896;28;20029;-77
2023/06/02 04:44:26;;;;;;;12.25;6.68;;;;;;;20.57;62.19;99520.41;5053422;28;20492;-78
2023/06/02 04:46:51;;;;;;;13.98;7.97;;;;;;;20.81;60.62;99510.22;5054000;28;20029;-77
2023/06/02 04:49:16;;;;;;;15.43;6.50;;;;;;;20.74;60.75;99511.75;5053517;28;20063;-77
2023/06/02 04:51:41;;;;;;;9.90;5.45;;;;;;;20.53;61.59;99501.31;5053778;28;20036;-77
2023/06/02 04:54:07;;;;;;;11.60;5.75;;;;;;;20.66;61.27;99519.56;5053589;28;20037;-77
2023/06/02 04:56:34;;;;;;;11.25;5.72;;;;;;;20.72;60.80;99510.22;5053489;28;20108;-77
2023/06/02 04:58:59;;;;;;;12.95;6.35;;;;;;;21.18;59.40;99512.94;5053719;28;20037;-77
2023/06/02 05:01:24;;;;;;;10.80;5.55;;;;;;;21.91;57.49;99502.56;5053646;28;20055;-77
2023/06/02 05:03:51;;;;;;;8.75;4.50;;;;;;;23.02;54.06;99486.41;5053483;28;20033;-77
2023/06/02 05:06:16;;;;;;;10.63;5.32;;;;;;;23.78;52.38;99510.47;5053056;28;20481;-77
2023/06/02 05:08:41;;;;;;;7.97;4.70;;;;;;;24.05;51.62;99514.72;5053267;28;20040;-78
2023/06/02 05:11:07;;;;;;;8.73;4.72;;;;;;;23.77;53.28;99534.56;5053341;28;20021;-77
2023/06/02 05:13:32;;;;;;;9.30;5.00;;;;;;;23.32;54.10;99532.94;5052792;28;20112;-77
2023/06/02 05:15:57;;;;;;;12.38;5.18;;;;;;;23.03;54.98;99526.09;5053106;28;20099;-77
2023/06/02 05:18:23;;;;;;;7.03;4.85;;;;;;;22.96;54.57;99525.03;5052948;28;20025;-78
2023/06/02 05:20:48;;;;;;;9.05;5.03;;;;;;;23.00;53.82;99542.34;5053110;28;20021;-78
2023/06/02 05:23:14;;;;;;;8.48;5.22;;;;;;;23.29;53.22;99525.28;5052732;28;20492;-78
2023/06/02 05:25:40;;;;;;;10.27;5.22;;;;;;;24.03;51.72;99522.03;5053095;28;20025;-77
2023/06/02 05:28:06;;;;;;;9.15;4.85;;;;;;;24.76;50.29;99529.38;5052911;28;20047;-77
2023/06/02 05:30:31;;;;;;;7.53;4.93;;;;;;;25.04;50.27;99551.22;5052734;28;20037;-77
2023/06/02 05:32:57;;;;;;;7.93;4.57;;;;;;;24.73;50.37;99527.03;5052719;28;20467;-77
2023/06/02 05:35:22;;;;;;;10.52;4.72;;;;;;;24.55;50.32;99553.00;5052616;28;20037;-78
2023/06/02 05:37:47;;;;;;;9.23;4.88;;;;;;;24.37;50.39;99545.97;5052043;28;20029;-78
2023/06/02 05:40:13;;;;;;;7.68;4.75;;;;;;;24.37;50.16;99543.31;5052580;28;20376;-78
2023/06/02 05:42:39;;;;;;;9.85;5.38;;;;;;;24.68;50.04;99564.00;5052656;28;20029;-78
2023/06/02 05:45:05;;;;;;;11.25;4.97;;;;;;;24.88;50.38;99553.88;5052582;28;20569;-78
2023/06/02 05:47:31;;;;;;;10.68;5.20;;;;;;;25.79;48.74;99561.66;5052421;28;20024;-78
2023/06/02 05:49:56;;;;;;;10.70;5.35;;;;;;;26.52;47.11;99573.84;5052503;28;20083;-78
2023/06/02 05:52:22;;;;;;;10.10;4.80;;;;;;;26.36;47.21;99547.22;5050708;28;20032;-78
2023/06/02 05:54:47;;;;;;;8.10;4.25;;;;;;;26.17;47.74;99560.97;5052314;28;20491;-78
2023/06/02 05:57:12;;;;;;;10.18;5.35;;;;;;;26.16;47.97;99560.16;5052417;28;20495;-78
2023/06/02 05:59:39;;;;;;;9.20;5.45;;;;;;;26.05;47.51;99549.88;5052236;28;20046;-78
2023/06/02 06:02:06;;;;;;;12.23;5.55;;;;;;;26.58;47.19;99567.78;5052322;28;20028;-78
2023/06/02 06:04:31;;;;;;;9.13;5.13;;;;;;;26.99;45.27;99556.81;5052173;28;20032;-78
2023/06/02 06:06:58;;;;;;;9.73;5.28;;;;;;;27.24;45.02;99570.84;5052140;28;20037;-78
2023/06/02 06:09:24;;;;;;;9.60;5.10;;;;;;;27.72;44.24;99570.53;5052000;28;20024;-78
2023/06/02 06:11:49;;;;;;;10.82;5.53;;;;;;;28.50;43.50;99577.16;5052363;28;20396;-78
2023/06/02 06:14:14;;;;;;;8.00;4.55;;;;;;;28.85;43.01;99562.06;5052027;28;20017;-78
2023/06/02 06:16:41;;;;;;;8.35;4.35;;;;;;;29.39;42.11;99566.88;5052244;28;20039;-78
2023/06/02 06:19:06;;;;;;;11.93;5.15;;;;;;;29.49;41.55;99571.91;5052083;28;20115;-78
2023/06/02 06:21:32;;;;;;;10.02;5.03;;;;;;;29.16;41.65;99563.59;5051793;28;20108;-78
2023/06/02 06:23:57;;;;;;;12.57;5.53;;;;;;;29.34;41.90;99563.97;5052130;28;20095;-78
2023/06/02 06:26:22;;;;;;;8.63;4.75;;;;;;;29.85;41.46;99562.88;5051570;28;20063;-78
2023/06/02 06:28:48;;;;;;;11.27;5.00;;;;;;;30.40;40.13;99569.97;5051937;28;20029;-78
2023/06/02 06:31:13;;;;;;;8.30;4.10;;;;;;;31.42;39.91;99568.06;5051856;28;20040;-78
2023/06/02 06:33:39;;;;;;;8.18;5.10;;;;;;;32.63;38.13;99584.50;5051654;28;20502;-79
2023/06/02 06:36:04;;;;;;;7.63;4.88;;;;;;;32.78;36.78;99557.19;5051682;28;20025;-79
2023/06/02 06:38:29;;;;;;;9.05;4.68;;;;;;;31.79;37.52;99570.06;5052001;28;20114;-78
2023/06/02 06:40:55;;;;;;;9.05;5.32;;;;;;;30.99;39.07;99587.28;5051817;28;20033;-78
2023/06/02 06:43:20;;;;;;;8.90;4.85;;;;;;;31.17;39.42;99565.97;5051597;28;20108;-78
2023/06/02 06:45:46;;;;;;;10.65;5.00;;;;;;;31.61;38.35;99561.81;5051621;28;20527;-78
2023/06/02 06:48:11;;;;;;;7.50;4.55;;;;;;;32.44;37.87;99567.38;5051711;28;20075;-78
2023/06/02 06:50:37;;;;;;;10.43;4.95;;;;;;;33.44;36.78;99583.72;5054210;28;20028;-78
2023/06/02 06:53:03;;;;;;;7.47;4.70;;;;;;;34.25;35.89;99584.53;5055932;28;20082;-78
2023/06/02 06:55:29;;;;;;;10.27;4.55;;;;;;;34.13;35.75;99576.34;5055638;28;20021;-78
2023/06/02 06:57:55;;;;;;;6.45;4.30;;;;;;;33.86;35.96;99600.13;5055834;28;20052;-78
2023/06/02 07:00:20;;;;;;;8.38;4.68;;;;;;;33.15;36.69;99585.19;5055389;28;20109;-78
2023/06/02 07:02:48;;;;;;;9.65;4.60;;;;;;;32.43;37.11;99581.06;5055725;28;20049;-78
2023/06/02 07:05:14;;;;;;;8.90;4.90;;;;;;;31.95;37.49;99601.13;5055483;28;20119;-78
2023/06/02 07:07:39;;;;;;;9.80;4.68;;;;;;;32.04;37.80;99590.94;5055362;28;20146;-78
2023/06/02 07:10:05;;;;;;;9.85;4.80;;;;;;;32.43;37.28;99581.88;5055507;28;20540;-78
2023/06/02 07:12:31;;;;;;;10.68;4.82;;;;;;;31.82;37.58;99592.22;5055344;28;20021;-78
2023/06/02 07:14:56;;;;;;;9.90;4.93;;;;;;;30.86;38.44;99588.09;5055389;28;20384;-78
2023/06/02 07:17:21;;;;;;;9.00;4.65;;;;;;;31.14;39.08;99603.22;5055170;28;20021;-78
2023/06/02 07:19:47;;;;;;;14.90;4.65;;;;;;;31.34;38.34;99608.63;5055292;28;20029;-78
2023/06/02 07:22:12;;;;;;;9.93;4.60;;;;;;;30.96;38.54;99610.03;5055576;28;20017;-78
2023/06/02 07:24:37;;;;;;;7.05;3.53;;;;;;;31.43;38.49;99607.38;5055319;28;20029;-78
2023/06/02 07:27:03;;;;;;;7.32;3.80;;;;;;;32.29;36.70;99608.06;5055401;28;20052;-78
2023/06/02 07:29:29;;;;;;;8.02;4.22;;;;;;;32.63;36.48;99597.16;5055177;28;20391;-78
2023/06/02 07:31:54;;;;;;;8.63;4.40;;;;;;;32.65;37.16;99586.94;5055112;28;20029;-78
2023/06/02 07:34:20;;;;;;;5.85;4.00;;;;;;;33.81;36.14;99618.06;5054905;28;20128;-78
2023/06/02 07:36:47;;;;;;;7.88;4.05;;;;;;;34.68;34.65;99599.78;5055023;28;20048;-78
2023/06/02 07:39:13;;;;;;;7.63;3.83;;;;;;;34.37;34.41;99598.09;5055262;28;20024;-78
2023/06/02 07:41:38;;;;;;;11.30;4.57;;;;;;;33.85;34.47;99616.56;5054697;28;20380;-78
2023/06/02 07:44:04;;;;;;;8.85;4.70;;;;;;;33.11;35.38;99626.31;5055024;28;20150;-78
2023/06/02 07:46:29;;;;;;;7.90;4.45;;;;;;;33.39;35.46;99615.09;5054651;28;20021;-78
2023/06/02 07:48:55;;;;;;;8.45;4.75;;;;;;;32.32;35.85;99609.50;5069175;28;20040;-78
2023/06/02 07:51:20;;;;;;;9.15;4.70;;;;;;;30.98;38.21;99616.03;5054972;28;20457;-78
2023/06/02 07:53:45;;;;;;;7.03;3.95;;;;;;;31.90;37.83;99610.88;5054510;28;20027;-78
2023/06/02 07:56:11;;;;;;;9.25;4.70;;;;;;;32.48;36.42;99621.69;5054717;28;20090;-78
2023/06/02 07:58:36;;;;;;;9.77;5.07;;;;;;;31.49;37.42;99610.09;5054620;28;20079;-78
2023/06/02 08:01:02;;;;;;;9.85;5.35;;;;;;;30.17;39.00;99615.97;5053950;28;20041;-78
2023/06/02 08:03:27;;;;;;;10.02;4.97;;;;;;;28.70;40.70;99588.94;5054314;28;20071;-78
2023/06/02 08:05:52;;;;;;;8.98;4.82;;;;;;;28.79;40.97;99632.53;5054745;28;20385;-78
2023/06/02 08:08:17;;;;;;;11.15;4.70;;;;;;;28.29;41.31;99624.28;5054870;28;20032;-78
2023/06/02 08:10:43;;;;;;;9.75;4.53;;;;;;;27.48;42.04;99614.44;5054002;28;20025;-77
2023/06/02 08:13:11;;;;;;;10.23;4.70;;;;;;;26.61;43.41;99628.06;5054217;28;20020;-78
2023/06/02 08:15:36;;;;;;;9.77;5.15;;;;;;;25.82;44.78;99635.16;5047330;28;20028;-77
2023/06/02 08:18:01;;;;;;;10.10;4.80;;;;;;;25.45;45.33;99625.88;5035723;28;20033;-78
2023/06/02 08:20:27;;;;;;;10.48;5.60;;;;;;;25.38;46.21;99635.53;5034058;28;20116;-78
2023/06/02 08:22:52;;;;;;;13.55;5.63;;;;;;;25.32;45.98;99622.84;5034387;28;20033;-78
2023/06/02 08:25:17;;;;;;;10.35;5.82;;;;;;;25.42;45.84;99644.84;5034302;28;20078;-78
2023/06/02 08:27:44;;;;;;;10.38;5.78;;;;;;;25.04;45.76;99625.81;5033739;28;20029;-78
2023/06/02 08:30:11;;;;;;;8.75;5.45;;;;;;;24.97;46.80;99613.31;5040709;28;20417;-78
2023/06/02 08:32:36;;;;;;;11.52;5.45;;;;;;;24.82;46.41;99615.81;5038405;28;20108;-78
2023/06/02 08:35:02;;;;;;;10.52;5.18;;;;;;;24.85;46.88;99634.09;5036121;28;20496;-78
2023/06/02 08:37:29;;;;;;;10.38;5.65;;;;;;;24.57;46.95;99639.72;5044111;28;20636;-78
2023/06/02 08:39:55;;;;;;;11.73;5.82;;;;;;;24.37;47.22;99615.19;5064837;28;20051;-78
2023/06/02 08:42:22;;;;;;;12.98;5.43;;;;;;;24.02;47.35;99610.84;5047095;28;20033;-78
2023/06/02 08:44:48;;;;;;;9.63;5.80;;;;;;;23.85;48.11;99630.34;5043987;28;20018;-78
2023/06/02 08:47:14;;;;;;;11.80;4.90;;;;;;;23.71;48.42;99634.41;5041996;28;20066;-78
2023/06/02 08:49:41;;;;;;;7.35;4.53;;;;;;;23.63;48.43;99632.50;5040843;28;20098;-78
2023/06/02 08:52:11;;;;;;;9.27;5.40;;;;;;;23.55;48.65;99613.81;5042896;28;20021;-78
2023/06/02 08:54:38;;;;;;;10.85;4.85;;;;;;;23.46;48.47;99627.22;5050165;28;20575;-78
2023/06/02 08:57:05;;;;;;;6.28;4.35;;;;;;;23.37;49.40;99643.09;5053384;28;20040;-78
2023/06/02 08:59:31;;;;;;;10.23;4.75;;;;;;;23.18;48.96;99624.69;5053183;28;20083;-78
2023/06/02 09:01:56;;;;;;;9.07;5.13;;;;;;;23.02;48.80;99624.53;5053161;28;20103;-78
2023/06/02 09:04:21;;;;;;;8.20;5.00;;;;;;;23.07;49.88;99638.19;5052819;28;20033;-78
2023/06/02 09:06:49;;;;;;;8.45;4.97;;;;;;;23.06;50.70;99616.13;5052163;28;20116;-78
2023/06/02 09:09:15;;;;;;;8.70;4.82;;;;;;;23.12;49.55;99623.47;5046453;28;20104;-78
2023/06/02 09:11:57;;;;;;;10.05;4.88;;;;;;;23.57;50.03;99638.44;5041728;28;20104;-78
2023/06/02 09:14:22;;;;;;;11.27;4.80;;;;;;;23.52;48.94;99629.28;5043247;28;20032;-78
2023/06/02 09:16:47;;;;;;;13.57;6.03;;;;;;;23.36;47.81;99637.97;5053151;28;20480;-78
2023/06/02 09:19:13;;;;;;;9.43;4.82;;;;;;;23.03;49.02;99599.63;5051896;28;20120;-78
2023/06/02 09:21:38;;;;;;;11.45;5.00;;;;;;;23.33;49.11;99652.38;5052965;28;20036;-78
2023/06/02 09:24:04;;;;;;;12.05;6.03;;;;;;;22.95;49.64;99629.63;5053101;28;20028;-78
2023/06/02 09:26:30;;;;;;;9.13;5.85;;;;;;;22.80;50.09;99652.34;5052809;28;20029;-78
2023/06/02 09:29:11;;;;;;;11.40;4.97;;;;;;;22.37;50.46;99633.41;5052832;28;20082;-78
2023/06/02 09:31:53;;;;;;;11.90;4.82;;;;;;;22.54;50.59;99647.72;5052832;28;20025;-78
2023/06/02 09:34:20;;;;;;;8.98;4.28;;;;;;;22.63;50.65;99646.03;5051257;28;20443;-78
2023/06/02 09:36:51;;;;;;;8.45;4.68;;;;;;;22.75;50.02;99659.91;5052548;28;20099;-78
2023/06/02 09:39:42;;;;;;;14.02;5.93;;;;;;;22.53;50.86;99642.56;5052540;28;20056;-78
2023/06/02 09:42:08;;;;;;;8.88;5.38;;;;;;;22.54;51.07;99650.38;5052814;28;20036;-78
2023/06/02 09:44:34;;;;;;;8.77;4.75;;;;;;;22.86;51.06;99675.63;5052529;28;20040;-78
2023/06/02 09:47:01;;;;;;;11.20;4.75;;;;;;;22.75;50.91;99671.34;5051327;28;20033;-78
2023/06/02 09:49:38;;;;;;;9.77;4.18;;;;;;;22.71;51.09;99663.84;5052157;28;20054;-78
2023/06/02 09:52:17;;;;;;;9.60;4.68;;;;;;;22.75;51.20;99658.09;5052455;28;20136;-78
2023/06/02 09:54:47;;;;;;;8.82;4.40;;;;;;;22.75;51.53;99678.50;5052400;28;20040;-78
2023/06/02 09:57:14;;;;;;;10.95;4.80;;;;;;;22.45;51.55;99653.09;5052494;28;20056;-78
2023/06/02 09:59:40;;;;;;;7.70;4.07;;;;;;;22.36;52.12;99674.22;5052274;28;20400;-78
2023/06/02 10:02:09;;;;;;;7.72;3.97;;;;;;;22.45;52.52;99671.66;5052254;28;20025;-78
2023/06/02 10:04:35;;;;;;;8.98;4.38;;;;;;;22.64;52.14;99685.69;5052161;28;20116;-78
2023/06/02 10:07:13;;;;;;;8.73;3.80;;;;;;;22.70;51.65;99697.53;5052358;28;20484;-78
2023/06/02 10:10:10;;;;;;;7.30;3.90;;;;;;;22.36;51.67;99695.44;5052072;28;20029;-78
2023/06/02 10:12:50;;;;;;;8.60;4.35;;;;;;;21.91;52.71;99705.88;5051770;28;20031;-78
2023/06/02 10:15:31;;;;;;;10.13;4.00;;;;;;;21.57;53.39;99689.59;5052122;28;20048;-78
2023/06/02 10:18:09;;;;;;;11.27;4.80;;;;;;;21.36;54.39;99710.94;5052119;28;20079;-78
2023/06/02 10:20:56;;;;;;;13.80;4.78;;;;;;;21.42;54.56;99708.59;5051891;28;20381;-78
2023/06/02 10:24:01;;;;;;;7.95;4.43;;;;;;;21.33;54.79;99680.28;5052141;28;20048;-78
2023/06/02 10:26:48;;;;;;;7.90;4.53;;;;;;;21.71;54.05;99701.59;5052240;28;20029;-78
2023/06/02 10:29:15;;;;;;;8.57;4.85;;;;;;;21.71;54.14;99698.94;5051763;28;20016;-78
2023/06/02 10:31:41;;;;;;;9.80;5.45;;;;;;;21.65;53.75;99671.19;5051752;28;20445;-78
2023/06/02 10:34:07;;;;;;;9.13;5.10;;;;;;;21.79;54.04;99680.53;5051872;28;20481;-78
2023/06/02 10:37:05;;;;;;;9.98;5.55;;;;;;;21.85;53.17;99699.34;5051694;28;20048;-78
2023/06/02 10:39:40;;;;;;;8.05;4.63;;;;;;;21.43;53.48;99693.53;5051514;28;20110;-78
2023/06/02 10:42:10;;;;;;;7.35;4.50;;;;;;;21.33;54.02;99677.63;5051847;28;20164;-78
2023/06/02 10:44:36;;;;;;;19.77;4.93;;;;;;;21.38;53.61;99687.81;5051641;28;20029;-78
2023/06/02 10:47:19;;;;;;;8.85;4.32;;;;;;;21.37;53.02;99705.53;5051623;28;20031;-78
2023/06/02 10:49:59;;;;;;;9.00;3.63;;;;;;;21.02;54.10;99689.28;5051501;28;20021;-78
2023/06/02 10:52:33;;;;;;;6.95;5.00;;;;;;;20.72;55.80;99698.97;5051546;28;20025;-78
2023/06/02 10:55:07;;;;;;;7.68;3.85;;;;;;;20.75;56.41;99704.00;5051740;28;20460;-78
2023/06/02 10:57:55;;;;;;;6.80;4.57;;;;;;;20.79;56.98;99708.06;5051284;28;20090;-78
2023/06/02 11:00:29;;;;;;;8.60;4.53;;;;;;;20.74;56.76;99697.03;5051560;28;20076;-78
2023/06/02 11:02:55;;;;;;;8.48;5.32;;;;;;;20.80;57.75;99699.13;5051546;28;20053;-78
2023/06/02 11:05:27;;;;;;;10.05;5.53;;;;;;;20.92;57.17;99694.56;5051788;28;20067;-78
2023/06/02 11:08:11;;;;;;;11.70;4.78;;;;;;;20.85;57.12;99696.91;5051356;28;20056;-78
2023/06/02 11:10:43;;;;;;;8.05;4.93;;;;;;;20.86;56.51;99692.47;5051354;28;20468;-78
2023/06/02 11:13:10;;;;;;;10.85;5.32;;;;;;;20.73;56.58;99690.06;5051415;28;20120;-78
2023/06/02 11:15:35;;;;;;;7.95;4.95;;;;;;;21.03;56.71;99709.50;5051736;28;20068;-78
2023/06/02 11:18:03;;;;;;;9.07;5.25;;;;;;;21.04;56.74;99703.22;5051588;28;20064;-78
2023/06/02 11:20:37;;;;;;;9.70;5.40;;;;;;;21.11;55.90;99714.94;5051678;28;20053;-78
2023/06/02 11:23:03;;;;;;;8.60;4.90;;;;;;;21.03;55.89;99722.75;5051488;28;20039;-78
2023/06/02 11:25:29;;;;;;;17.92;5.90;;;;;;;20.93;55.98;99709.47;5051353;28;20128;-78
2023/06/02 11:27:54;;;;;;;7.65;4.88;;;;;;;20.99;55.61;99719.53;5051065;28;20516;-78
2023/06/02 11:30:20;;;;;;;8.40;4.75;;;;;;;21.03;56.62;99707.69;5051711;28;20108;-78